createdAt,value
2023-12-21T00:01:39.240Z,4.37
2023-12-21T00:04:08.023Z,4.42
2023-12-21T00:06:36.084Z,4.28
2023-12-21T00:09:03.801Z,4.32
2023-12-21T00:11:31.496Z,4.32
2023-12-21T00:14:00.495Z,4.33
2023-12-21T00:16:29.242Z,4.27
2023-12-21T00:18:59.321Z,4.34
2023-12-21T00:21:27.106Z,4.24
2023-12-21T00:23:54.769Z,4.24
2023-12-21T00:26:22.428Z,4.32
2023-12-21T00:28:50.201Z,4.24
2023-12-21T00:31:17.925Z,4.31
2023-12-21T00:33:45.638Z,4.25
2023-12-21T00:36:20.074Z,4.26
2023-12-21T00:38:47.750Z,4.23
2023-12-21T00:41:15.435Z,4.17
2023-12-21T00:43:43.083Z,4.17
2023-12-21T00:46:10.736Z,4.13
2023-12-21T00:48:38.508Z,4.19
2023-12-21T00:51:07.675Z,4.15
2023-12-21T00:53:36.699Z,4.19
2023-12-21T00:56:04.530Z,4.20
2023-12-21T00:58:32.208Z,4.19
2023-12-21T01:01:00.275Z,4.18
2023-12-21T01:03:28.052Z,4.31
2023-12-21T01:05:55.765Z,4.23
2023-12-21T01:08:23.594Z,4.28
2023-12-21T01:10:52.572Z,4.29
2023-12-21T01:13:20.299Z,4.22
2023-12-21T01:15:47.982Z,4.30
2023-12-21T01:18:15.669Z,4.29
2023-12-21T01:20:43.543Z,4.30
2023-12-21T01:23:11.243Z,4.35
2023-12-21T01:25:38.972Z,4.42
2023-12-21T01:28:08.311Z,4.30
2023-12-21T01:30:35.838Z,4.30
2023-12-21T01:33:03.616Z,4.34
2023-12-21T01:35:31.553Z,4.19
2023-12-21T01:37:59.262Z,4.17
2023-12-21T01:40:26.960Z,4.13
2023-12-21T01:42:54.666Z,4.06
2023-12-21T01:45:23.727Z,4.00
2023-12-21T01:47:52.770Z,4.03
2023-12-21T01:50:20.984Z,4.11
2023-12-21T01:52:49.929Z,4.06
2023-12-21T01:55:18.684Z,4.11
2023-12-21T01:57:46.822Z,4.11
2023-12-21T02:00:15.687Z,4.03
2023-12-21T02:02:44.850Z,4.01
2023-12-21T02:05:12.637Z,4.12
2023-12-21T02:07:41.899Z,4.09
2023-12-21T02:10:10.885Z,4.02
2023-12-21T02:12:38.622Z,4.08
2023-12-21T02:15:08.062Z,4.08
2023-12-21T02:17:36.904Z,4.00
2023-12-21T02:20:08.237Z,3.99
2023-12-21T02:22:36.800Z,3.96
2023-12-21T02:25:06.728Z,4.04
2023-12-21T02:27:35.240Z,4.01
2023-12-21T02:30:02.864Z,3.93
2023-12-21T02:32:30.568Z,3.91
2023-12-21T02:34:58.241Z,3.92
2023-12-21T02:37:25.984Z,3.96
2023-12-21T02:39:53.605Z,3.95
2023-12-21T02:42:22.547Z,3.98
2023-12-21T02:44:50.199Z,3.92
2023-12-21T02:47:17.880Z,3.86
2023-12-21T02:49:45.559Z,3.89
2023-12-21T02:52:14.753Z,3.88
2023-12-21T02:54:42.254Z,3.88
2023-12-21T02:57:09.827Z,3.93
2023-12-21T02:59:38.784Z,3.91
2023-12-21T03:02:06.443Z,3.94
2023-12-21T03:04:34.168Z,3.92
2023-12-21T03:07:01.994Z,3.92
2023-12-21T03:09:29.922Z,3.92
2023-12-21T03:11:57.560Z,3.94
2023-12-21T03:14:25.216Z,3.97
2023-12-21T03:16:54.136Z,3.95
2023-12-21T03:19:21.995Z,4.00
2023-12-21T03:21:49.684Z,3.96
2023-12-21T03:24:17.268Z,3.92
2023-12-21T03:26:46.916Z,3.98
2023-12-21T03:29:14.517Z,4.00
2023-12-21T03:31:42.172Z,3.98
2023-12-21T03:34:11.258Z,3.96
2023-12-21T03:36:38.939Z,3.98
2023-12-21T03:39:06.533Z,4.00
2023-12-21T03:41:34.127Z,4.00
2023-12-21T03:44:01.746Z,4.05
2023-12-21T03:46:29.482Z,4.08
2023-12-21T03:48:57.569Z,4.08
2023-12-21T03:51:26.929Z,4.09
2023-12-21T03:53:54.578Z,4.12
2023-12-21T03:56:24.249Z,4.12
2023-12-21T03:58:51.854Z,4.17
2023-12-21T04:01:25.372Z,4.30
2023-12-21T04:03:53.080Z,4.21
2023-12-21T04:06:20.697Z,4.23
2023-12-21T04:08:49.840Z,4.24
2023-12-21T04:11:18.185Z,4.24
2023-12-21T04:13:48.427Z,4.23
2023-12-21T04:16:16.486Z,4.26
2023-12-21T04:18:44.950Z,4.23
2023-12-21T04:21:12.659Z,4.24
2023-12-21T04:23:40.281Z,4.29
2023-12-21T04:26:09.209Z,4.27
2023-12-21T04:28:36.911Z,4.30
2023-12-21T04:31:04.760Z,4.29
2023-12-21T04:33:32.484Z,4.26
2023-12-21T04:36:00.114Z,4.34
2023-12-21T04:38:27.792Z,4.33
2023-12-21T04:40:55.372Z,4.32
2023-12-21T04:43:24.506Z,4.31
2023-12-21T04:45:52.232Z,4.33
2023-12-21T04:48:19.934Z,4.38
2023-12-21T04:50:47.711Z,4.39
2023-12-21T04:53:15.356Z,4.43
2023-12-21T04:55:43.068Z,4.46
2023-12-21T04:58:10.719Z,4.45
2023-12-21T05:00:41.571Z,4.46
2023-12-21T05:03:09.249Z,4.49
2023-12-21T05:05:36.962Z,4.46
2023-12-21T05:08:04.925Z,4.46
2023-12-21T05:10:32.538Z,4.51
2023-12-21T05:13:00.256Z,4.53
2023-12-21T05:15:27.960Z,4.48
2023-12-21T05:17:56.970Z,4.46
2023-12-21T05:20:24.653Z,4.47
2023-12-21T05:22:52.402Z,4.49
2023-12-21T05:25:20.109Z,4.51
2023-12-21T05:27:47.730Z,4.51
2023-12-21T05:30:18.341Z,4.49
2023-12-21T05:32:46.433Z,4.49
2023-12-21T05:35:15.726Z,4.45
2023-12-21T05:37:43.397Z,4.46
2023-12-21T05:40:13.497Z,4.48
2023-12-21T05:42:41.191Z,4.46
2023-12-21T05:45:09.522Z,4.51
2023-12-21T05:47:37.180Z,4.45
2023-12-21T05:50:05.960Z,4.48
2023-12-21T05:52:34.967Z,4.48
2023-12-21T05:55:03.611Z,4.48
2023-12-21T05:57:31.296Z,4.50
2023-12-21T05:59:58.898Z,4.51
2023-12-21T06:02:26.552Z,4.54
2023-12-21T06:04:54.226Z,4.53
2023-12-21T06:07:21.877Z,4.52
2023-12-21T06:09:51.301Z,4.54
2023-12-21T06:12:18.963Z,4.55
2023-12-21T06:14:46.566Z,4.55
2023-12-21T06:17:16.124Z,4.59
2023-12-21T06:19:44.290Z,4.53
2023-12-21T06:22:12.000Z,4.56
2023-12-21T06:24:39.637Z,4.59
2023-12-21T06:27:08.662Z,4.68
2023-12-21T06:29:36.271Z,4.81
2023-12-21T06:32:04.355Z,4.86
2023-12-21T06:34:32.231Z,4.84
2023-12-21T06:37:00.016Z,4.86
2023-12-21T06:39:27.661Z,4.89
2023-12-21T06:41:55.262Z,4.93
2023-12-21T06:44:24.328Z,4.93
2023-12-21T06:46:52.763Z,5.01
2023-12-21T06:49:20.575Z,5.17
2023-12-21T06:51:48.343Z,5.23
2023-12-21T06:54:16.050Z,5.22
2023-12-21T06:56:43.691Z,5.24
2023-12-21T06:59:11.330Z,5.29
2023-12-21T07:01:40.401Z,5.37
2023-12-21T07:04:09.567Z,5.40
2023-12-21T07:06:37.105Z,5.35
2023-12-21T07:09:04.889Z,5.29
2023-12-21T07:11:33.372Z,5.37
2023-12-21T07:14:00.997Z,5.39
2023-12-21T07:16:28.726Z,5.35
2023-12-21T07:18:57.913Z,5.38
2023-12-21T07:21:25.705Z,5.48
2023-12-21T07:23:53.330Z,5.39
2023-12-21T07:26:20.977Z,5.37
2023-12-21T07:28:48.564Z,5.42
2023-12-21T07:31:17.322Z,5.46
2023-12-21T07:33:45.450Z,5.49
2023-12-21T07:36:16.453Z,5.37
2023-12-21T07:38:44.229Z,5.44
2023-12-21T07:41:12.809Z,5.42
2023-12-21T07:43:40.463Z,5.41
2023-12-21T07:46:10.147Z,5.43
2023-12-21T07:48:38.059Z,5.48
2023-12-21T07:51:06.461Z,5.56
2023-12-21T07:53:35.530Z,5.55
2023-12-21T07:56:04.134Z,5.63
2023-12-21T07:58:32.153Z,5.56
2023-12-21T08:01:00.053Z,5.63
2023-12-21T08:03:27.695Z,5.64
2023-12-21T08:05:56.367Z,5.64
2023-12-21T08:08:24.030Z,5.71
2023-12-21T08:10:53.354Z,5.73
2023-12-21T08:13:21.119Z,5.76
2023-12-21T08:15:48.997Z,5.76
2023-12-21T08:18:17.623Z,5.76
2023-12-21T08:20:48.750Z,5.73
2023-12-21T08:23:16.459Z,5.73
2023-12-21T08:25:44.673Z,5.78
2023-12-21T08:28:14.002Z,5.76
2023-12-21T08:30:42.780Z,5.80
2023-12-21T08:33:10.677Z,5.89
2023-12-21T08:35:38.736Z,5.88
2023-12-21T08:38:06.370Z,5.92
2023-12-21T08:40:34.302Z,5.95
2023-12-21T08:43:02.005Z,5.94
2023-12-21T08:45:30.965Z,5.99
2023-12-21T08:47:58.679Z,6.02
2023-12-21T08:50:26.989Z,5.94
2023-12-21T08:52:54.760Z,5.97
2023-12-21T08:55:22.528Z,6.03
2023-12-21T08:57:50.181Z,5.97
2023-12-21T09:00:19.111Z,5.96
2023-12-21T09:02:48.326Z,6.06
2023-12-21T09:05:16.172Z,6.07
2023-12-21T09:07:44.015Z,6.06
2023-12-21T09:10:11.774Z,6.14
2023-12-21T09:12:39.872Z,6.08
2023-12-21T09:15:09.357Z,6.09
2023-12-21T09:17:37.338Z,6.15
2023-12-21T09:20:09.357Z,6.14
2023-12-21T09:22:38.107Z,6.26
2023-12-21T09:25:06.761Z,6.38
2023-12-21T09:27:35.569Z,6.39
2023-12-21T09:30:06.375Z,6.45
2023-12-21T09:32:34.248Z,6.46
2023-12-21T09:35:02.033Z,6.49
2023-12-21T09:37:31.056Z,6.43
2023-12-21T09:39:59.754Z,6.56
2023-12-21T09:42:29.496Z,6.55
2023-12-21T09:44:57.308Z,6.69
2023-12-21T09:47:26.533Z,6.75
2023-12-21T09:49:55.440Z,6.82
2023-12-21T09:52:23.776Z,6.78
2023-12-21T09:54:54.143Z,6.77
2023-12-21T09:57:24.531Z,6.81
2023-12-21T09:59:53.498Z,6.89
2023-12-21T10:02:22.982Z,6.89
2023-12-21T10:04:50.677Z,6.87
2023-12-21T10:07:18.493Z,6.82
2023-12-21T10:09:46.719Z,6.85
2023-12-21T10:12:15.748Z,6.97
2023-12-21T10:14:44.924Z,6.91
2023-12-21T10:17:12.663Z,6.99
2023-12-21T10:19:40.298Z,6.95
2023-12-21T10:22:08.576Z,7.03
2023-12-21T10:24:36.285Z,7.10
2023-12-21T10:27:04.756Z,7.17
2023-12-21T10:29:33.861Z,7.28
2023-12-21T10:32:01.687Z,7.31
2023-12-21T10:34:30.017Z,7.32
2023-12-21T10:37:02.116Z,7.28
2023-12-21T10:39:31.188Z,7.34
2023-12-21T10:41:59.809Z,7.30
2023-12-21T10:44:27.571Z,7.40
2023-12-21T10:46:56.927Z,7.42
2023-12-21T10:49:25.740Z,7.50
2023-12-21T10:51:55.160Z,7.56
2023-12-21T10:54:23.689Z,7.55
2023-12-21T10:56:52.091Z,7.51
2023-12-21T10:59:21.924Z,7.54
2023-12-21T11:01:50.336Z,7.59
2023-12-21T11:04:22.286Z,7.62
2023-12-21T11:06:51.278Z,7.61
2023-12-21T11:09:21.070Z,7.57
2023-12-21T11:11:49.103Z,7.62
2023-12-21T11:14:18.402Z,7.68
2023-12-21T11:16:50.837Z,7.67
2023-12-21T11:19:24.681Z,7.83
2023-12-21T11:21:52.473Z,7.74
2023-12-21T11:24:23.517Z,7.71
2023-12-21T11:26:52.327Z,7.84
2023-12-21T11:29:25.068Z,7.87
2023-12-21T11:31:53.075Z,7.96
2023-12-21T11:34:25.970Z,8.00
2023-12-21T11:36:58.704Z,8.00
2023-12-21T11:39:27.252Z,8.02
2023-12-21T11:41:59.363Z,8.07
2023-12-21T11:44:36.389Z,8.09
2023-12-21T11:47:07.293Z,8.07
2023-12-21T11:49:36.434Z,8.12
2023-12-21T11:52:04.002Z,8.02
2023-12-21T11:54:31.732Z,7.98
2023-12-21T11:57:12.324Z,8.13
2023-12-21T11:59:40.102Z,8.09
2023-12-21T12:02:08.915Z,8.28
2023-12-21T12:04:38.036Z,8.16
2023-12-21T12:07:06.324Z,8.20
2023-12-21T12:09:34.012Z,8.07
2023-12-21T12:12:02.182Z,8.04
2023-12-21T12:14:29.809Z,7.91
2023-12-21T12:16:57.489Z,7.91
2023-12-21T12:19:27.949Z,7.88
2023-12-21T12:21:57.145Z,7.86
2023-12-21T12:24:24.908Z,7.88
2023-12-21T12:26:53.138Z,7.85
2023-12-21T12:29:20.782Z,7.74
2023-12-21T12:31:50.432Z,7.66
2023-12-21T12:34:18.710Z,7.63
2023-12-21T12:36:46.411Z,7.48
2023-12-21T12:39:16.337Z,7.49
2023-12-21T12:41:43.997Z,7.46
2023-12-21T12:44:11.611Z,7.56
2023-12-21T12:46:39.588Z,7.62
2023-12-21T12:49:07.420Z,7.68
2023-12-21T12:51:36.065Z,7.84
2023-12-21T12:54:03.718Z,7.83
2023-12-21T12:56:32.705Z,7.86
2023-12-21T12:59:00.404Z,7.84
2023-12-21T13:01:29.645Z,7.97
2023-12-21T13:03:58.652Z,7.96
2023-12-21T13:06:26.633Z,7.97
2023-12-21T13:08:57.700Z,7.89
2023-12-21T13:11:25.461Z,7.85
2023-12-21T13:13:54.716Z,7.82
2023-12-21T13:16:22.636Z,7.85
2023-12-21T13:18:50.497Z,7.86
2023-12-21T13:21:18.156Z,7.79
2023-12-21T13:23:45.757Z,7.79
2023-12-21T13:26:14.797Z,7.75
2023-12-21T13:28:44.462Z,7.73
2023-12-21T13:31:15.282Z,7.61
2023-12-21T13:33:43.305Z,7.53
2023-12-21T13:36:11.180Z,7.47
2023-12-21T13:38:39.273Z,7.44
2023-12-21T13:41:09.717Z,7.35
2023-12-21T13:43:38.173Z,7.37
2023-12-21T13:46:07.938Z,7.34
2023-12-21T13:48:37.079Z,7.36
2023-12-21T13:51:05.051Z,7.32
2023-12-21T13:53:33.371Z,7.31
2023-12-21T13:56:01.284Z,7.35
2023-12-21T13:58:29.089Z,7.34
2023-12-21T14:00:57.283Z,7.29
2023-12-21T14:03:25.303Z,7.33
2023-12-21T14:05:54.290Z,7.39
2023-12-21T14:08:22.286Z,7.35
2023-12-21T14:10:50.006Z,7.35
2023-12-21T14:13:17.723Z,7.36
2023-12-21T14:15:45.375Z,7.29
2023-12-21T14:18:12.997Z,7.31
2023-12-21T14:20:40.618Z,7.28
2023-12-21T14:23:10.147Z,7.29
2023-12-21T14:25:37.833Z,7.32
2023-12-21T14:28:06.049Z,7.28
2023-12-21T14:30:33.757Z,7.25
2023-12-21T14:33:01.466Z,7.24
2023-12-21T14:35:29.261Z,7.27
2023-12-21T14:37:56.994Z,7.27
2023-12-21T14:40:27.590Z,7.20
2023-12-21T14:44:38.202Z,7.19
2023-12-21T14:47:05.999Z,7.18
2023-12-21T14:49:33.837Z,7.17
2023-12-21T14:52:02.687Z,7.18
2023-12-21T14:54:31.932Z,7.19
2023-12-21T14:57:01.143Z,7.24
2023-12-21T14:59:28.794Z,7.24
2023-12-21T15:01:58.470Z,7.25
2023-12-21T15:04:26.471Z,7.25
2023-12-21T15:06:54.947Z,7.27
2023-12-21T15:09:22.800Z,7.26
2023-12-21T15:11:50.455Z,7.29
2023-12-21T15:14:18.102Z,7.37
2023-12-21T15:16:45.829Z,7.38
2023-12-21T15:19:15.135Z,7.32
2023-12-21T15:21:42.904Z,7.33
2023-12-21T15:24:10.584Z,7.27
2023-12-21T15:26:38.186Z,7.46
2023-12-21T15:29:08.711Z,7.52
2023-12-21T15:31:37.263Z,7.57
2023-12-21T15:34:05.128Z,7.54
2023-12-21T15:36:36.705Z,7.56
2023-12-21T15:39:06.085Z,7.60
2023-12-21T15:41:33.859Z,7.76
2023-12-21T15:44:01.941Z,7.83
2023-12-21T15:46:30.088Z,7.82
2023-12-21T15:48:58.317Z,8.07
2023-12-21T15:51:26.032Z,8.03
2023-12-21T15:53:55.336Z,8.18
2023-12-21T15:56:22.808Z,8.10
2023-12-21T15:58:50.536Z,8.25
2023-12-21T16:01:20.582Z,8.35
2023-12-21T16:03:48.470Z,8.26
2023-12-21T16:06:16.278Z,8.45
2023-12-21T16:08:43.970Z,8.51
2023-12-21T16:11:13.201Z,8.49
2023-12-21T16:13:40.832Z,8.41
2023-12-21T16:16:08.911Z,8.55
2023-12-21T16:18:36.587Z,8.59
2023-12-21T16:21:04.485Z,8.44
2023-12-21T16:23:32.414Z,8.46
2023-12-21T16:26:00.500Z,8.38
2023-12-21T16:28:29.579Z,8.45
2023-12-21T16:30:57.417Z,8.37
2023-12-21T16:33:25.336Z,8.31
2023-12-21T16:35:53.118Z,8.46
2023-12-21T16:38:20.778Z,8.39
2023-12-21T16:40:48.595Z,8.64
2023-12-21T16:43:16.295Z,8.69
2023-12-21T16:45:45.296Z,8.50
2023-12-21T16:48:14.607Z,8.48
2023-12-21T16:50:43.467Z,8.55
2023-12-21T16:53:11.237Z,8.41
2023-12-21T16:55:38.890Z,8.38
2023-12-21T16:58:08.115Z,8.35
2023-12-21T17:00:35.964Z,8.38
2023-12-21T17:03:05.953Z,8.37
2023-12-21T17:05:33.855Z,8.32
2023-12-21T17:08:01.733Z,8.25
2023-12-21T17:10:29.370Z,8.20
2023-12-21T17:12:58.035Z,8.27
2023-12-21T17:15:28.789Z,8.25
2023-12-21T17:17:59.144Z,8.12
2023-12-21T17:20:31.459Z,8.08
2023-12-21T17:23:00.850Z,8.11
2023-12-21T17:25:28.607Z,8.11
2023-12-21T17:27:57.261Z,8.15
2023-12-21T17:30:26.217Z,8.19
2023-12-21T17:32:54.219Z,8.18
2023-12-21T17:35:21.882Z,8.15
2023-12-21T17:37:51.219Z,8.19
2023-12-21T17:40:19.052Z,8.15
2023-12-21T17:42:46.697Z,8.16
2023-12-21T17:45:14.991Z,8.13
2023-12-21T17:47:42.692Z,8.00
2023-12-21T17:50:11.600Z,8.10
2023-12-21T17:52:39.408Z,8.11
2023-12-21T17:55:10.509Z,8.05
2023-12-21T17:57:38.464Z,7.99
2023-12-21T18:00:07.228Z,8.11
2023-12-21T18:02:34.946Z,8.07
2023-12-21T18:05:02.668Z,8.24
2023-12-21T18:07:30.590Z,8.19
2023-12-21T18:09:58.290Z,8.15
2023-12-21T18:12:27.395Z,8.38
2023-12-21T18:14:54.981Z,8.28
2023-12-21T18:17:22.748Z,8.30
2023-12-21T18:19:50.487Z,8.31
2023-12-21T18:22:18.220Z,8.29
2023-12-21T18:24:47.709Z,8.30
2023-12-21T18:27:15.571Z,8.23
2023-12-21T18:29:44.494Z,8.35
2023-12-21T18:32:12.116Z,8.32
2023-12-21T18:34:40.177Z,8.42
2023-12-21T18:37:08.038Z,8.43
2023-12-21T18:39:35.746Z,8.41
2023-12-21T18:42:03.364Z,8.55
2023-12-21T18:44:30.997Z,8.47
2023-12-21T18:46:59.928Z,8.27
2023-12-21T18:49:27.639Z,8.34
2023-12-21T18:51:55.256Z,8.44
2023-12-21T18:54:22.878Z,8.42
2023-12-21T18:56:50.687Z,8.42
2023-12-21T18:59:18.316Z,8.24
2023-12-21T19:01:45.939Z,8.24
2023-12-21T19:04:17.204Z,8.15
2023-12-21T19:06:45.078Z,8.18
2023-12-21T19:09:16.190Z,8.13
2023-12-21T19:11:43.804Z,8.15
2023-12-21T19:14:11.446Z,8.12
2023-12-21T19:16:45.062Z,8.12
2023-12-21T19:19:13.371Z,8.00
2023-12-21T19:21:46.979Z,8.04
2023-12-21T19:24:14.716Z,8.09
2023-12-21T19:26:42.708Z,8.04
2023-12-21T19:29:10.912Z,8.04
2023-12-21T19:31:39.046Z,8.00
2023-12-21T19:34:06.689Z,8.01
2023-12-21T19:36:34.384Z,8.03
2023-12-21T19:39:05.365Z,8.06
2023-12-21T19:41:33.025Z,8.00
2023-12-21T19:44:00.703Z,8.01
2023-12-21T19:46:28.411Z,8.01
2023-12-21T19:48:56.074Z,8.02
2023-12-21T19:51:24.977Z,7.98
2023-12-21T19:53:52.597Z,7.99
2023-12-21T19:56:21.534Z,7.94
2023-12-21T19:58:50.185Z,7.90
2023-12-21T20:01:17.910Z,7.91
2023-12-21T20:03:45.555Z,7.89
2023-12-21T20:06:13.334Z,8.03
2023-12-21T20:08:41.720Z,7.99
2023-12-21T20:11:09.373Z,8.11
2023-12-21T20:13:40.513Z,8.03
2023-12-21T20:16:10.704Z,8.11
2023-12-21T20:18:38.445Z,8.18
2023-12-21T20:21:06.274Z,8.13
2023-12-21T20:23:33.991Z,8.22
2023-12-21T20:26:01.785Z,8.24
2023-12-21T20:28:29.465Z,8.22
2023-12-21T20:30:58.502Z,8.37
2023-12-21T20:33:27.657Z,8.29
2023-12-21T20:35:55.279Z,8.35
2023-12-21T20:38:22.912Z,8.30
2023-12-21T20:40:50.610Z,8.24
2023-12-21T20:43:19.929Z,8.32
2023-12-21T20:45:47.808Z,8.27
2023-12-21T20:48:16.748Z,8.35
2023-12-21T20:50:45.059Z,8.38
2023-12-21T20:53:12.758Z,8.32
2023-12-21T20:55:41.582Z,8.23
2023-12-21T20:58:10.805Z,8.24
2023-12-21T21:00:38.861Z,8.23
2023-12-21T21:03:06.881Z,8.21
2023-12-21T21:05:35.946Z,8.20
2023-12-21T21:08:03.679Z,8.12
2023-12-21T21:10:31.350Z,8.16
2023-12-21T21:13:01.643Z,8.09
2023-12-21T21:15:29.384Z,8.14
2023-12-21T21:17:57.647Z,8.05
2023-12-21T21:20:25.575Z,8.02
2023-12-21T21:22:54.695Z,7.93
2023-12-21T21:25:22.431Z,7.88
2023-12-21T21:27:50.394Z,7.85
2023-12-21T21:30:54.506Z,7.83
2023-12-21T21:33:06.748Z,7.70
2023-12-21T21:35:34.562Z,7.66
2023-12-21T21:38:03.833Z,7.57
2023-12-21T21:40:31.386Z,7.58
2023-12-21T21:42:59.061Z,7.62
2023-12-21T21:45:26.714Z,7.63
2023-12-21T21:47:54.696Z,7.63
2023-12-21T21:50:22.362Z,7.57
2023-12-21T21:52:50.121Z,7.56
2023-12-21T21:55:19.159Z,7.59
2023-12-21T21:57:47.038Z,7.63
2023-12-21T22:00:16.055Z,7.55
2023-12-21T22:02:43.713Z,7.52
2023-12-21T22:05:11.924Z,7.51
2023-12-21T22:07:41.190Z,7.57
2023-12-21T22:10:08.911Z,7.57
2023-12-21T22:12:37.955Z,7.70
2023-12-21T22:15:06.404Z,7.72
2023-12-21T22:17:34.086Z,7.74
2023-12-21T22:20:01.824Z,7.82
2023-12-21T22:22:29.574Z,7.74
2023-12-21T22:24:57.298Z,7.79
2023-12-21T22:27:25.172Z,7.73
2023-12-21T22:29:54.188Z,7.79
2023-12-21T22:32:21.980Z,7.87
2023-12-21T22:34:50.033Z,7.86
2023-12-21T22:37:19.004Z,7.81
2023-12-21T22:39:47.007Z,7.75
2023-12-21T22:42:16.430Z,7.69
2023-12-21T22:44:44.155Z,7.53
2023-12-21T22:47:13.499Z,7.40
2023-12-21T22:49:41.235Z,7.26
2023-12-21T22:52:08.983Z,7.20
2023-12-21T22:54:36.701Z,7.19
2023-12-21T22:57:04.917Z,7.18
2023-12-21T22:59:32.975Z,7.15
2023-12-21T23:02:01.739Z,7.22
2023-12-21T23:04:30.907Z,7.21
2023-12-21T23:06:58.469Z,7.25
2023-12-21T23:09:26.423Z,7.29
2023-12-21T23:11:54.047Z,7.20
2023-12-21T23:14:21.721Z,7.17
2023-12-21T23:16:49.512Z,7.15
2023-12-21T23:19:17.441Z,6.98
2023-12-21T23:21:46.527Z,7.02
2023-12-21T23:24:14.246Z,7.13
2023-12-21T23:26:43.184Z,7.06
2023-12-21T23:29:10.915Z,7.18
2023-12-21T23:31:38.944Z,7.27
2023-12-21T23:34:06.766Z,7.27
2023-12-21T23:36:34.572Z,7.28
2023-12-21T23:39:03.835Z,7.26
2023-12-21T23:41:31.514Z,7.28
2023-12-21T23:43:59.351Z,7.28
2023-12-21T23:46:27.119Z,7.25
2023-12-21T23:48:54.906Z,7.23
2023-12-21T23:51:22.719Z,7.26
2023-12-21T23:53:50.367Z,7.20
2023-12-21T23:56:19.569Z,7.11
2023-12-21T23:58:47.103Z,7.17
